This is the latest recevied weather packets stored in our database for station/object NR6G-5. If no packets are shown the sender has not sent any weather packets the latest 10 day(s).
| Time | Temp. | Humidity | Pressure | Rain* | Wind** | Luminosity | Snow |
|---|---|---|---|---|---|---|---|
| 1777875378 | 16.67° C | 54% | 1012.8 hPa | 0 mm | - | - | - |
| 1777875078 | 16.67° C | 54% | 1012.8 hPa | 0 mm | - | - | - |
| 1777874777 | 16.67° C | 54% | 1012.8 hPa | 0 mm | - | - | - |
| 1777874478 | 16.67° C | 53% | 1012.8 hPa | 0 mm | - | - | - |
| 1777874178 | 17.22° C | 53% | 1013 hPa | 0 mm | - | - | - |
| 1777873877 | 17.22° C | 53% | 1013 hPa | 0 mm | - | - | - |
| 1777873577 | 17.22° C | 53% | 1013 hPa | 0 mm | - | - | - |
| 1777873276 | 17.22° C | 53% | 1013 hPa | 0 mm | - | - | - |
| 1777872677 | 17.22° C | 53% | 1012.8 hPa | 0 mm | - | - | - |
| 1777871779 | 17.22° C | 53% | 1013 hPa | 0 mm | - | - | - |
| 1777871176 | 17.22° C | 53% | 1012.8 hPa | 0 mm | - | - | - |
| 1777870577 | 17.22° C | 52% | 1012.3 hPa | 0 mm | - | - | - |
| 1777870036 | 17.22° C | 52% | 1012 hPa | 0 mm | - | - | - |
| 1777869736 | 17.22° C | 52% | 1012 hPa | 0 mm | - | - | - |
| 1777868839 | 17.22° C | 51% | 1011.7 hPa | 0 mm | - | - | - |
| 1777868236 | 17.22° C | 50% | 1011.4 hPa | 0 mm | - | - | - |
| 1777867036 | 17.78° C | 49% | 1011.4 hPa | 0 mm | - | - | - |
| 1777865258 | 18.89° C | 48% | 1010.4 hPa | 0 mm | - | - | - |
| 1777846692 | 25° C | 38% | 1008.6 hPa | 0 mm | - | - | - |
| 1777845492 | 25° C | 40% | 1008.7 hPa | 0 mm | - | - | - |
| 1777845192 | 25° C | 39% | 1008.8 hPa | 0 mm | - | - | - |
| 1777844592 | 25° C | 39% | 1008.9 hPa | 0 mm | - | - | - |
| 1777844296 | 25° C | 40% | 1009 hPa | 0 mm | - | - | - |
| 1777843992 | 24.44° C | 40% | 1009 hPa | 0 mm | - | - | - |
| 1777843093 | 24.44° C | 40% | 1009.1 hPa | 0 mm | - | - | - |
* Rain latest hour (hover to see other rain measurements)
** Current wind speed in m/s (hover to see current wind gust speed)